Time;durP1;ratioP1;P1;durP2;ratioP2;P2;SDS_P1;SDS_P2;PMS_P1;PMS_P2;Temp;Humidity;BMP_temperature;BMP_pressure;BME280_temperature;BME280_humidity;BME280_pressure;Samples;Min_cycle;Max_cycle;Signal;HPM_P1;HPM_P2
2023/04/11 00:00:07;;;;;;;34.43;5.43;;;9.10;99.90;;;;;;4847508;29;20315;-59
2023/04/11 00:02:37;;;;;;;32.27;5.40;;;9.10;99.90;;;;;;4857005;29;20231;-59
2023/04/11 00:05:07;;;;;;;38.97;6.17;;;9.00;99.90;;;;;;4854803;29;20231;-59
2023/04/11 00:07:35;;;;;;;36.97;5.40;;;8.90;99.90;;;;;;4855100;29;20210;-59
2023/04/11 00:10:05;;;;;;;30.20;4.97;;;8.90;99.90;;;;;;4854469;29;20747;-59
2023/04/11 00:12:34;;;;;;;31.60;5.30;;;8.90;99.90;;;;;;4856049;29;20250;-59
2023/04/11 00:15:02;;;;;;;32.37;5.57;;;8.80;99.90;;;;;;4850517;29;20236;-59
2023/04/11 00:17:32;;;;;;;36.40;4.73;;;8.80;99.90;;;;;;4854260;29;20587;-59
2023/04/11 00:20:06;;;;;;;39.53;5.40;;;8.80;99.90;;;;;;4840598;29;20255;-59
2023/04/11 00:22:35;;;;;;;34.50;5.30;;;8.80;99.90;;;;;;4856084;29;20213;-59
2023/04/11 00:25:03;;;;;;;40.77;5.23;;;8.80;99.90;;;;;;4853831;29;20255;-59
2023/04/11 00:27:31;;;;;;;37.67;5.70;;;8.80;99.90;;;;;;4856171;29;20580;-59
2023/04/11 00:30:00;;;;;;;39.27;5.97;;;8.80;99.90;;;;;;4845406;29;20775;-58
2023/04/11 00:32:28;;;;;;;36.63;5.07;;;8.80;99.90;;;;;;4843721;29;20220;-59
2023/04/11 00:34:57;;;;;;;30.00;5.93;;;8.80;99.90;;;;;;4852614;29;20326;-59
2023/04/11 00:37:26;;;;;;;28.77;5.03;;;8.80;99.90;;;;;;4856229;29;20718;-59
2023/04/11 00:39:55;;;;;;;30.20;4.47;;;8.70;99.90;;;;;;4857841;29;20249;-59
2023/04/11 00:42:23;;;;;;;30.07;4.73;;;8.70;99.90;;;;;;4857357;29;20250;-59
2023/04/11 00:44:51;;;;;;;48.50;5.83;;;8.70;99.90;;;;;;4850988;29;20256;-58
2023/04/11 00:47:22;;;;;;;27.30;5.50;;;8.70;99.90;;;;;;4848979;29;20344;-59
2023/04/11 00:49:50;;;;;;;35.33;5.73;;;8.60;99.90;;;;;;4852836;29;20306;-59
2023/04/11 00:52:20;;;;;;;35.70;5.10;;;8.60;99.90;;;;;;4849010;29;20598;-59
2023/04/11 00:54:48;;;;;;;31.40;5.20;;;8.60;99.90;;;;;;4852813;29;20223;-58
2023/04/11 00:57:17;;;;;;;29.50;4.73;;;8.50;99.90;;;;;;4853169;29;20219;-58
2023/04/11 00:59:48;;;;;;;24.43;5.17;;;8.50;99.90;;;;;;4855569;29;20702;-59
2023/04/11 01:02:17;;;;;;;29.67;5.50;;;8.50;99.90;;;;;;4859545;29;20599;-58
2023/04/11 01:04:47;;;;;;;36.57;5.30;;;8.40;99.90;;;;;;4857724;29;20552;-59
2023/04/11 01:07:17;;;;;;;19.40;4.43;;;8.50;99.90;;;;;;4855937;29;20259;-59
2023/04/11 01:09:48;;;;;;;30.90;5.03;;;8.40;99.90;;;;;;4852927;29;20270;-59
2023/04/11 01:12:16;;;;;;;34.07;4.80;;;8.40;99.90;;;;;;4852390;29;20227;-59
2023/04/11 01:14:46;;;;;;;37.10;5.67;;;8.40;99.90;;;;;;4855037;29;20295;-59
2023/04/11 01:17:15;;;;;;;35.00;5.10;;;8.40;99.90;;;;;;4859868;29;20230;-59
2023/04/11 01:19:44;;;;;;;27.93;4.80;;;8.50;99.90;;;;;;4856063;29;20547;-59
2023/04/11 01:22:16;;;;;;;27.43;4.80;;;8.40;99.90;;;;;;4858166;29;20659;-58
2023/04/11 01:24:49;;;;;;;25.57;4.80;;;8.40;99.90;;;;;;4855491;29;20271;-59
2023/04/11 01:27:17;;;;;;;30.23;4.57;;;8.40;99.90;;;;;;4855014;29;20762;-58
2023/04/11 01:29:45;;;;;;;33.97;5.27;;;8.40;99.90;;;;;;4857863;29;20227;-59
2023/04/11 01:32:14;;;;;;;32.87;4.97;;;8.30;99.90;;;;;;4856156;29;20356;-58
2023/04/11 01:34:44;;;;;;;27.50;5.30;;;8.30;99.90;;;;;;4861484;29;20187;-58
2023/04/11 01:37:12;;;;;;;28.00;4.73;;;8.30;99.90;;;;;;4858337;29;20264;-59
2023/04/11 01:39:41;;;;;;;39.83;5.73;;;8.30;99.90;;;;;;4857971;29;20219;-58
2023/04/11 01:42:12;;;;;;;41.93;5.77;;;8.30;99.90;;;;;;4858492;29;20266;-58
2023/04/11 01:44:41;;;;;;;29.17;4.57;;;8.20;99.90;;;;;;4859221;29;20231;-59
2023/04/11 01:47:09;;;;;;;29.83;5.00;;;8.20;99.90;;;;;;4861005;29;20219;-59
2023/04/11 01:49:38;;;;;;;35.57;4.93;;;8.20;99.90;;;;;;4853163;29;20276;-59
2023/04/11 01:52:06;;;;;;;28.10;4.27;;;8.20;99.90;;;;;;4859200;29;20581;-59
2023/04/11 01:54:34;;;;;;;31.40;4.77;;;8.10;99.90;;;;;;4851720;29;20239;-58
2023/04/11 01:57:03;;;;;;;32.40;4.47;;;8.10;99.90;;;;;;4855227;29;20232;-59
2023/04/11 01:59:32;;;;;;;28.07;5.20;;;8.00;99.90;;;;;;4858417;29;20291;-60
2023/04/11 02:02:00;;;;;;;32.90;4.53;;;8.10;99.90;;;;;;4853703;29;20314;-59
2023/04/11 02:04:29;;;;;;;25.17;4.40;;;8.00;99.90;;;;;;4858845;29;20234;-59
2023/04/11 02:06:57;;;;;;;24.97;4.53;;;8.00;99.90;;;;;;4855719;29;20239;-59
2023/04/11 02:09:32;;;;;;;34.47;5.27;;;8.00;99.90;;;;;;4852071;29;20231;-58
2023/04/11 02:12:00;;;;;;;34.67;4.50;;;8.00;99.90;;;;;;4851309;29;20219;-58
2023/04/11 02:14:42;;;;;;;26.07;4.60;;;8.00;99.90;;;;;;4854764;29;20268;-59
2023/04/11 02:17:11;;;;;;;25.20;4.20;;;8.00;99.90;;;;;;4857718;29;20242;-59
2023/04/11 02:19:40;;;;;;;29.50;4.47;;;8.00;99.90;;;;;;4855616;29;20216;-59
2023/04/11 02:22:08;;;;;;;37.30;4.60;;;8.00;99.90;;;;;;4847483;29;20204;-59
2023/04/11 02:24:37;;;;;;;30.93;4.40;;;8.00;99.90;;;;;;4859019;29;20703;-58
2023/04/11 02:27:05;;;;;;;24.80;4.00;;;7.90;99.90;;;;;;4850334;29;20259;-58
2023/04/11 02:29:34;;;;;;;50.07;5.33;;;7.90;99.90;;;;;;4856460;29;20219;-58
2023/04/11 02:32:03;;;;;;;22.23;5.23;;;7.90;99.90;;;;;;4858374;29;20800;-59
2023/04/11 02:34:32;;;;;;;28.63;4.57;;;7.90;99.90;;;;;;4858592;29;21077;-59
2023/04/11 02:37:00;;;;;;;27.77;4.30;;;7.90;99.90;;;;;;4857300;29;20223;-59
2023/04/11 02:39:29;;;;;;;26.37;4.30;;;7.90;99.90;;;;;;4852341;29;20740;-59
2023/04/11 02:41:57;;;;;;;28.67;4.80;;;7.80;99.90;;;;;;4857006;29;20236;-58
2023/04/11 02:44:25;;;;;;;26.73;4.43;;;7.80;99.90;;;;;;4854138;29;20227;-59
2023/04/11 02:46:53;;;;;;;20.93;3.83;;;7.70;99.90;;;;;;4850116;29;20200;-59
2023/04/11 02:49:23;;;;;;;21.87;4.60;;;7.70;99.90;;;;;;4855235;29;20351;-59
2023/04/11 02:51:51;;;;;;;29.50;4.73;;;7.80;99.90;;;;;;4855134;29;20232;-59
2023/04/11 02:54:19;;;;;;;27.20;4.13;;;7.80;99.90;;;;;;4857988;29;20227;-59
2023/04/11 02:56:48;;;;;;;26.37;4.70;;;7.80;99.90;;;;;;4851045;29;20295;-58
2023/04/11 02:59:16;;;;;;;28.27;4.43;;;7.80;99.90;;;;;;4858926;29;20291;-59
2023/04/11 03:01:45;;;;;;;25.73;3.83;;;7.70;99.90;;;;;;4853159;29;20251;-59
2023/04/11 03:04:13;;;;;;;27.20;4.30;;;7.70;99.90;;;;;;4854999;29;20203;-60
2023/04/11 03:06:42;;;;;;;30.63;4.00;;;7.70;99.90;;;;;;4852627;29;20231;-59
2023/04/11 03:09:11;;;;;;;28.90;3.93;;;7.60;99.90;;;;;;4856673;29;20245;-59
2023/04/11 03:11:39;;;;;;;34.30;5.00;;;7.60;99.90;;;;;;4853388;29;20227;-59
2023/04/11 03:14:07;;;;;;;23.93;4.77;;;7.60;99.90;;;;;;4854048;29;20227;-58
2023/04/11 03:16:36;;;;;;;27.83;4.03;;;7.60;99.90;;;;;;4858508;29;20582;-59
2023/04/11 03:19:04;;;;;;;22.40;4.43;;;7.60;99.90;;;;;;4851280;29;20258;-59
2023/04/11 03:21:32;;;;;;;21.57;4.13;;;7.50;99.90;;;;;;4849838;29;20265;-58
2023/04/11 03:24:02;;;;;;;34.87;4.47;;;7.50;99.90;;;;;;4856837;29;20592;-59
2023/04/11 03:26:31;;;;;;;22.57;3.80;;;7.50;99.90;;;;;;4856519;29;20268;-58
2023/04/11 03:29:01;;;;;;;22.87;4.13;;;7.50;99.90;;;;;;4858223;29;20249;-60
2023/04/11 03:31:29;;;;;;;27.57;4.33;;;7.40;99.90;;;;;;4855625;29;20583;-58
2023/04/11 03:33:58;;;;;;;24.30;4.67;;;7.40;99.90;;;;;;4859205;29;20292;-59
2023/04/11 03:36:26;;;;;;;23.17;3.73;;;7.40;99.90;;;;;;4855941;29;20275;-58
2023/04/11 03:38:55;;;;;;;21.67;3.50;;;7.40;99.90;;;;;;4853804;29;20288;-59
2023/04/11 03:41:25;;;;;;;26.73;4.17;;;7.40;99.90;;;;;;4852805;29;20271;-58
2023/04/11 03:43:53;;;;;;;27.30;4.63;;;7.40;99.90;;;;;;4854375;29;20199;-58
2023/04/11 03:46:21;;;;;;;31.10;4.73;;;7.40;99.90;;;;;;4858261;29;20667;-58
2023/04/11 03:48:49;;;;;;;31.43;4.57;;;7.40;99.90;;;;;;4856944;29;20215;-58
2023/04/11 03:51:17;;;;;;;24.17;4.53;;;7.30;99.90;;;;;;4857082;29;20266;-59
2023/04/11 03:53:46;;;;;;;34.87;5.13;;;7.30;99.90;;;;;;4855078;29;20695;-59
2023/04/11 03:56:14;;;;;;;33.27;5.10;;;7.30;99.90;;;;;;4856412;29;20239;-59
2023/04/11 03:58:44;;;;;;;24.97;4.60;;;7.30;99.90;;;;;;4853342;29;20243;-59
2023/04/11 04:01:12;;;;;;;21.23;4.17;;;7.30;99.90;;;;;;4851440;29;20232;-59
2023/04/11 04:03:40;;;;;;;23.90;5.20;;;7.20;99.90;;;;;;4854825;29;20280;-59
2023/04/11 04:06:10;;;;;;;18.90;4.23;;;7.20;99.90;;;;;;4856580;29;21131;-58
2023/04/11 04:08:38;;;;;;;33.07;4.83;;;7.10;99.90;;;;;;4855889;29;20225;-59
2023/04/11 04:11:06;;;;;;;33.93;5.17;;;7.10;99.90;;;;;;4849924;29;20271;-59
2023/04/11 04:13:35;;;;;;;27.07;4.83;;;7.10;99.90;;;;;;4854831;29;20248;-59
2023/04/11 04:16:05;;;;;;;25.60;4.23;;;7.10;99.90;;;;;;4850616;29;20282;-58
2023/04/11 04:18:33;;;;;;;22.70;5.17;;;7.20;99.90;;;;;;4856849;29;20230;-59
2023/04/11 04:21:01;;;;;;;25.83;3.80;;;7.10;99.90;;;;;;4842818;29;20246;-59
2023/04/11 04:23:31;;;;;;;24.97;4.60;;;7.10;99.90;;;;;;4850671;29;20231;-58
2023/04/11 04:26:00;;;;;;;20.33;4.17;;;7.10;99.90;;;;;;4845060;29;20647;-59
2023/04/11 04:28:29;;;;;;;25.60;4.37;;;7.10;99.90;;;;;;4851815;29;20662;-58
2023/04/11 04:30:58;;;;;;;23.70;4.23;;;7.10;99.90;;;;;;4853149;29;20242;-58
2023/04/11 04:33:31;;;;;;;27.20;4.23;;;7.00;99.90;;;;;;4853382;29;20880;-58
2023/04/11 04:36:01;;;;;;;19.47;3.93;;;7.00;99.90;;;;;;4854719;29;20231;-58
2023/04/11 04:38:29;;;;;;;20.43;3.93;;;7.00;99.90;;;;;;4851005;29;20280;-58
2023/04/11 04:40:57;;;;;;;25.70;3.60;;;7.00;99.90;;;;;;4853255;29;20932;-59
2023/04/11 04:43:26;;;;;;;28.07;3.83;;;6.90;99.90;;;;;;4856341;29;20924;-59
2023/04/11 04:45:54;;;;;;;22.33;3.83;;;6.90;99.90;;;;;;4855266;29;20280;-58
2023/04/11 04:48:24;;;;;;;22.37;4.23;;;6.90;99.90;;;;;;4847726;29;20223;-59
2023/04/11 04:50:54;;;;;;;23.20;3.93;;;6.90;99.90;;;;;;4857249;29;20251;-58
2023/04/11 04:53:23;;;;;;;16.83;3.70;;;6.80;99.90;;;;;;4857708;29;20698;-59
2023/04/11 04:55:51;;;;;;;19.53;3.57;;;6.80;99.90;;;;;;4853501;29;20196;-58
2023/04/11 04:58:19;;;;;;;27.03;4.13;;;6.80;99.90;;;;;;4858448;29;20191;-58
2023/04/11 05:00:49;;;;;;;24.50;3.73;;;6.80;99.90;;;;;;4856756;29;20602;-58
2023/04/11 05:03:19;;;;;;;19.93;3.40;;;6.70;99.90;;;;;;4854922;29;20223;-59
2023/04/11 05:05:48;;;;;;;19.00;3.83;;;6.70;99.90;;;;;;4849892;29;20242;-59
2023/04/11 05:08:20;;;;;;;15.83;3.53;;;6.70;99.90;;;;;;4848669;29;20228;-58
2023/04/11 05:10:48;;;;;;;17.13;4.83;;;6.70;99.90;;;;;;4849229;29;20210;-58
2023/04/11 05:13:17;;;;;;;27.20;3.27;;;6.70;99.90;;;;;;4852705;29;20302;-58
2023/04/11 05:15:48;;;;;;;16.77;3.27;;;6.80;99.90;;;;;;4849990;29;20760;-58
2023/04/11 05:18:16;;;;;;;21.60;4.37;;;6.80;99.90;;;;;;4851106;29;20235;-58
2023/04/11 05:20:45;;;;;;;16.20;3.73;;;6.80;99.90;;;;;;4853478;29;20291;-58
2023/04/11 05:23:13;;;;;;;23.17;4.13;;;6.90;99.90;;;;;;4851083;29;20227;-59
2023/04/11 05:25:42;;;;;;;14.00;3.77;;;6.90;99.90;;;;;;4857004;29;20235;-59
2023/04/11 05:28:11;;;;;;;22.50;3.97;;;6.90;99.90;;;;;;4853531;29;20203;-59
2023/04/11 05:30:39;;;;;;;19.17;3.23;;;6.90;99.90;;;;;;4851085;29;20219;-59
2023/04/11 05:33:07;;;;;;;16.17;3.73;;;6.90;99.90;;;;;;4852508;29;20231;-59
2023/04/11 05:35:35;;;;;;;22.50;3.40;;;7.00;99.90;;;;;;4852711;29;20632;-59
2023/04/11 05:38:04;;;;;;;20.80;3.63;;;7.10;99.90;;;;;;4849837;29;20299;-59
2023/04/11 05:40:32;;;;;;;18.20;3.63;;;7.20;99.90;;;;;;4855582;29;20199;-58
2023/04/11 05:43:01;;;;;;;21.73;3.90;;;7.40;99.90;;;;;;4847627;29;20279;-59
2023/04/11 05:45:30;;;;;;;14.20;3.23;;;7.60;99.90;;;;;;4850980;29;20255;-59
2023/04/11 05:47:58;;;;;;;16.40;2.83;;;7.90;99.90;;;;;;4855014;29;20736;-59
2023/04/11 05:50:26;;;;;;;17.53;3.10;;;8.10;99.90;;;;;;4852931;29;20625;-59
2023/04/11 05:52:57;;;;;;;17.53;2.93;;;8.30;99.90;;;;;;4849442;29;20238;-59
2023/04/11 05:55:25;;;;;;;20.07;3.67;;;8.60;99.90;;;;;;4854635;29;20248;-59
2023/04/11 05:57:53;;;;;;;21.83;3.57;;;8.70;99.90;;;;;;4854181;29;20215;-59
2023/04/11 06:00:24;;;;;;;17.50;3.33;;;8.80;99.90;;;;;;4856920;29;20751;-59
2023/04/11 06:02:53;;;;;;;18.63;3.30;;;8.90;99.90;;;;;;4851983;29;20587;-59
2023/04/11 06:05:22;;;;;;;17.03;3.10;;;9.00;99.90;;;;;;4854412;29;20972;-59
2023/04/11 06:07:51;;;;;;;16.53;3.30;;;9.20;99.90;;;;;;4857660;29;20211;-60
2023/04/11 06:10:19;;;;;;;12.97;3.23;;;9.30;99.90;;;;;;4852411;29;20586;-59
2023/04/11 06:12:47;;;;;;;17.20;3.47;;;9.40;99.90;;;;;;4858988;29;20607;-59
2023/04/11 06:15:15;;;;;;;16.00;3.60;;;9.50;99.90;;;;;;4857627;29;20709;-59
2023/04/11 06:17:45;;;;;;;12.37;3.27;;;9.60;99.90;;;;;;4856465;29;20235;-59
2023/04/11 06:20:15;;;;;;;16.00;3.40;;;9.80;99.90;;;;;;4853245;29;20224;-59
2023/04/11 06:22:45;;;;;;;15.27;3.30;;;9.90;99.90;;;;;;4853477;29;20183;-59
2023/04/11 06:25:14;;;;;;;13.43;3.67;;;10.10;99.90;;;;;;4849485;29;20196;-59
2023/04/11 06:27:42;;;;;;;11.77;3.20;;;10.20;99.90;;;;;;4856121;29;20224;-59
2023/04/11 06:30:11;;;;;;;13.60;3.93;;;10.40;99.90;;;;;;4835174;29;20224;-59
2023/04/11 06:32:39;;;;;;;10.80;3.00;;;10.70;99.90;;;;;;4850692;29;20220;-59
2023/04/11 06:35:10;;;;;;;18.10;3.13;;;10.70;99.90;;;;;;4857258;29;20306;-58
2023/04/11 06:37:38;;;;;;;13.90;3.30;;;10.80;99.90;;;;;;4839891;29;20206;-60
2023/04/11 06:40:07;;;;;;;17.20;3.50;;;11.00;99.90;;;;;;4855312;29;20199;-59
2023/04/11 06:42:36;;;;;;;12.00;3.20;;;11.30;99.90;;;;;;4851867;29;20386;-60
2023/04/11 06:45:05;;;;;;;12.40;3.17;;;11.60;99.90;;;;;;4856887;29;20254;-59
2023/04/11 06:47:33;;;;;;;18.40;3.40;;;11.80;99.90;;;;;;4854407;29;20272;-59
2023/04/11 06:50:01;;;;;;;15.53;3.53;;;11.70;99.90;;;;;;4855196;29;20275;-59
2023/04/11 06:52:31;;;;;;;14.33;3.07;;;12.00;99.90;;;;;;4852619;29;20227;-59
2023/04/11 06:54:59;;;;;;;13.43;3.40;;;12.30;99.90;;;;;;4853000;29;20235;-59
2023/04/11 06:57:27;;;;;;;13.30;3.20;;;12.40;99.90;;;;;;4853559;29;20227;-59
2023/04/11 06:59:55;;;;;;;8.77;2.90;;;12.50;99.90;;;;;;4857529;29;20275;-59
2023/04/11 07:02:24;;;;;;;18.97;3.50;;;12.70;99.90;;;;;;4851974;29;20227;-60
2023/04/11 07:04:53;;;;;;;12.37;2.97;;;12.70;99.90;;;;;;4853489;29;20689;-59
2023/04/11 07:07:21;;;;;;;9.97;2.60;;;12.90;99.90;;;;;;4849751;29;20199;-59
2023/04/11 07:09:52;;;;;;;12.23;3.40;;;13.10;99.90;;;;;;4855486;29;20283;-59
2023/04/11 07:12:20;;;;;;;14.07;2.97;;;13.40;99.90;;;;;;4858048;29;20235;-60
2023/04/11 07:14:48;;;;;;;19.23;3.27;;;13.40;99.90;;;;;;4852624;29;20220;-59
2023/04/11 07:17:16;;;;;;;16.40;3.50;;;13.70;99.90;;;;;;4847596;29;20947;-59
2023/04/11 07:19:45;;;;;;;10.50;3.23;;;14.00;99.90;;;;;;4854315;29;20219;-59
2023/04/11 07:22:13;;;;;;;10.57;2.70;;;14.40;99.90;;;;;;4847634;29;20199;-59
2023/04/11 07:24:42;;;;;;;11.90;2.70;;;14.50;99.90;;;;;;4852154;29;20228;-59
2023/04/11 07:27:13;;;;;;;12.07;2.73;;;14.60;99.90;;;;;;4850640;29;20290;-60
2023/04/11 07:29:41;;;;;;;7.93;2.70;;;14.60;99.90;;;;;;4852263;29;20250;-59
2023/04/11 07:32:09;;;;;;;12.80;2.80;;;14.60;99.90;;;;;;4853890;29;20230;-59
2023/04/11 07:34:38;;;;;;;16.13;2.97;;;14.50;99.90;;;;;;4838034;29;20319;-62
2023/04/11 07:37:06;;;;;;;11.80;2.87;;;14.80;99.90;;;;;;4855850;29;20665;-59
2023/04/11 07:39:35;;;;;;;11.63;2.67;;;14.80;99.90;;;;;;4852930;29;20586;-59
2023/04/11 07:42:03;;;;;;;14.27;3.17;;;14.90;99.90;;;;;;4852570;29;20233;-59
2023/04/11 07:44:36;;;;;;;10.87;2.97;;;15.10;99.90;;;;;;4850986;29;20794;-59
2023/04/11 07:47:04;;;;;;;10.40;3.07;;;15.20;99.90;;;;;;4854625;29;20258;-59
2023/04/11 07:49:32;;;;;;;11.93;2.70;;;15.50;99.90;;;;;;4856221;29;20610;-59
2023/04/11 07:52:01;;;;;;;11.43;2.67;;;15.70;99.90;;;;;;4852939;29;20232;-59
2023/04/11 07:54:29;;;;;;;9.40;2.60;;;15.80;99.90;;;;;;4859081;29;20267;-60
2023/04/11 07:56:58;;;;;;;11.80;2.90;;;16.10;99.90;;;;;;4851122;29;20235;-59
2023/04/11 07:59:26;;;;;;;10.80;2.47;;;16.10;99.90;;;;;;4852040;29;20242;-59
2023/04/11 08:02:05;;;;;;;8.20;2.43;;;16.00;99.90;;;;;;4850797;29;20253;-59
2023/04/11 08:04:34;;;;;;;8.93;3.03;;;15.90;99.90;;;;;;4857576;29;20202;-60
2023/04/11 08:07:03;;;;;;;7.00;2.43;;;16.10;99.90;;;;;;4850624;29;20238;-59
2023/04/11 08:09:33;;;;;;;8.27;2.40;;;16.30;99.90;;;;;;4853243;29;20223;-60
2023/04/11 08:12:02;;;;;;;11.87;2.50;;;16.70;99.90;;;;;;4845565;29;20314;-60
2023/04/11 08:14:30;;;;;;;6.43;2.43;;;16.90;99.90;;;;;;4849977;29;20730;-60
2023/04/11 08:17:00;;;;;;;12.40;2.30;;;17.00;99.90;;;;;;4854267;29;20317;-60
2023/04/11 08:19:30;;;;;;;6.40;2.10;;;17.50;99.90;;;;;;4850025;29;20223;-60
2023/04/11 08:21:58;;;;;;;10.60;2.70;;;17.80;99.90;;;;;;4855616;29;20231;-60
2023/04/11 08:24:26;;;;;;;8.40;2.60;;;17.80;99.90;;;;;;4846999;29;20235;-60
2023/04/11 08:26:54;;;;;;;5.77;2.27;;;17.60;99.90;;;;;;4840368;29;20215;-60
2023/04/11 08:29:23;;;;;;;6.57;2.13;;;17.70;99.90;;;;;;4848329;29;20223;-60
2023/04/11 08:31:51;;;;;;;9.20;2.57;;;18.00;99.90;;;;;;4840916;29;20248;-60
2023/04/11 08:34:20;;;;;;;6.60;2.23;;;18.60;99.90;;;;;;4853850;29;20263;-60
2023/04/11 08:36:49;;;;;;;5.00;2.20;;;18.90;99.90;;;;;;4850829;29;20265;-60
2023/04/11 08:39:17;;;;;;;3.40;1.90;;;19.10;99.90;;;;;;4855082;29;20271;-60
2023/04/11 08:41:46;;;;;;;7.53;2.50;;;19.10;99.90;;;;;;4852793;29;20236;-61
2023/04/11 08:44:14;;;;;;;8.30;2.00;;;19.00;99.90;;;;;;4847678;29;20630;-61
2023/04/11 08:46:43;;;;;;;5.87;2.20;;;19.00;99.90;;;;;;4849521;29;20197;-60
2023/04/11 08:49:12;;;;;;;5.43;2.27;;;18.80;99.90;;;;;;4848829;29;20202;-60
2023/04/11 08:51:43;;;;;;;5.73;2.27;;;18.90;99.90;;;;;;4849316;29;20225;-60
2023/04/11 08:54:12;;;;;;;5.37;2.20;;;19.00;99.90;;;;;;4852323;29;20225;-61
2023/04/11 08:56:42;;;;;;;7.40;2.40;;;19.40;99.90;;;;;;4856235;29;20340;-60
2023/04/11 08:59:10;;;;;;;7.73;1.80;;;19.50;99.90;;;;;;4844179;29;20228;-60
2023/04/11 09:01:39;;;;;;;5.63;2.00;;;19.30;99.90;;;;;;4856617;29;20234;-61
2023/04/11 09:04:09;;;;;;;7.73;2.30;;;19.60;99.90;;;;;;4856533;29;20196;-60
2023/04/11 09:06:38;;;;;;;4.37;1.83;;;19.90;99.90;;;;;;4849975;29;20319;-60
2023/04/11 09:09:28;;;;;;;6.67;2.20;;;20.00;99.90;;;;;;4851978;29;20232;-60
2023/04/11 09:11:57;;;;;;;7.73;2.57;;;20.10;99.90;;;;;;4852321;29;20572;-61
2023/04/11 09:14:26;;;;;;;8.80;2.60;;;19.80;99.90;;;;;;4852547;29;20232;-60
2023/04/11 09:16:57;;;;;;;6.67;2.00;;;19.50;99.90;;;;;;4856366;29;20291;-60
2023/04/11 09:19:27;;;;;;;6.47;2.27;;;19.10;99.90;;;;;;4852465;29;20277;-60
2023/04/11 09:21:59;;;;;;;5.03;2.07;;;18.50;99.90;;;;;;4847625;29;20232;-60
2023/04/11 09:24:30;;;;;;;8.07;1.90;;;17.60;99.90;;;;;;4857874;29;20216;-59
2023/04/11 09:27:12;;;;;;;9.90;2.50;;;16.50;99.90;;;;;;4856395;29;20764;-59
2023/04/11 09:29:42;;;;;;;5.57;1.80;;;15.70;99.90;;;;;;4857170;29;20701;-60
2023/04/11 09:32:27;;;;;;;4.73;2.07;;;15.80;99.90;;;;;;4850563;29;20231;-59
2023/04/11 09:35:11;;;;;;;5.30;2.10;;;16.90;99.90;;;;;;4853908;29;20239;-60
2023/04/11 09:37:47;;;;;;;5.97;2.47;;;17.90;99.90;;;;;;4857059;29;20196;-60
2023/04/11 09:40:19;;;;;;;8.13;2.23;;;18.50;99.90;;;;;;4861161;29;20295;-60
2023/04/11 09:42:49;;;;;;;10.07;2.50;;;19.30;99.90;;;;;;4861000;29;20680;-61
2023/04/11 09:45:22;;;;;;;7.80;2.13;;;19.50;99.90;;;;;;4861993;29;20642;-61
2023/04/11 09:47:52;;;;;;;5.87;2.20;;;20.00;99.90;;;;;;4861406;29;20223;-60
2023/04/11 09:50:21;;;;;;;7.17;2.37;;;20.60;99.90;;;;;;4861471;29;20250;-61
2023/04/11 09:52:51;;;;;;;6.70;2.00;;;20.50;99.90;;;;;;4859249;29;20199;-60
2023/04/11 09:55:22;;;;;;;5.30;2.17;;;20.70;99.90;;;;;;4860589;29;20218;-60
2023/04/11 09:57:52;;;;;;;6.07;2.30;;;20.60;99.90;;;;;;4861333;29;20323;-60
2023/04/11 10:00:28;;;;;;;6.67;1.93;;;20.90;99.90;;;;;;4858136;29;20713;-60
2023/04/11 10:02:56;;;;;;;7.20;1.87;;;20.70;99.90;;;;;;4859621;29;20686;-60
2023/04/11 10:05:26;;;;;;;6.23;1.90;;;20.20;99.90;;;;;;4859590;29;20231;-60
2023/04/11 10:08:02;;;;;;;4.47;1.80;;;20.40;99.90;;;;;;4861652;29;20203;-60
2023/04/11 10:10:32;;;;;;;7.40;2.10;;;21.30;99.90;;;;;;4858023;29;20231;-61
2023/04/11 10:13:03;;;;;;;5.40;2.00;;;21.80;99.90;;;;;;4853672;29;20236;-61
2023/04/11 10:15:32;;;;;;;2.97;2.00;;;21.90;99.90;;;;;;4859327;29;20243;-60
2023/04/11 10:18:08;;;;;;;5.53;2.00;;;20.70;99.90;;;;;;4860419;29;20699;-60
2023/04/11 10:20:48;;;;;;;6.57;2.20;;;19.20;99.90;;;;;;4852901;29;20262;-59
2023/04/11 10:23:19;;;;;;;5.80;2.07;;;18.30;99.90;;;;;;4861247;29;20224;-60
2023/04/11 10:25:54;;;;;;;9.30;2.30;;;17.40;99.90;;;;;;4856474;29;20191;-60
2023/04/11 10:28:37;;;;;;;5.63;1.93;;;16.90;99.90;;;;;;4851473;29;20203;-60
2023/04/11 10:31:12;;;;;;;7.33;2.00;;;16.60;99.90;;;;;;4854814;29;20310;-59
2023/04/11 10:34:01;;;;;;;8.90;2.37;;;16.80;99.90;;;;;;4852223;29;20249;-59
2023/04/11 10:37:03;;;;;;;8.77;2.80;;;17.10;99.90;;;;;;4852886;29;20228;-60
2023/04/11 10:40:08;;;;;;;7.27;2.53;;;17.40;99.90;;;;;;4859570;29;20230;-60
2023/04/11 10:42:40;;;;;;;4.67;1.83;;;17.20;99.90;;;;;;4853274;29;20219;-60
2023/04/11 10:45:23;;;;;;;8.57;2.27;;;16.40;99.90;;;;;;4851492;29;20220;-59
2023/04/11 10:48:06;;;;;;;10.47;2.60;;;15.90;99.90;;;;;;4858782;29;20283;-60
2023/04/11 10:50:41;;;;;;;8.40;2.70;;;15.60;99.90;;;;;;4858739;29;20251;-60
2023/04/11 10:53:32;;;;;;;7.20;2.67;;;15.50;99.90;;;;;;4854237;29;20234;-60
2023/04/11 10:56:01;;;;;;;8.23;2.10;;;15.70;99.90;;;;;;4853190;29;20246;-60
2023/04/11 10:58:39;;;;;;;9.17;2.50;;;15.50;99.90;;;;;;4857849;29;20205;-59
2023/04/11 11:01:25;;;;;;;6.77;2.43;;;15.70;99.90;;;;;;4857775;29;20247;-59
2023/04/11 11:04:04;;;;;;;13.00;2.50;;;15.50;99.90;;;;;;4854759;29;20287;-59
2023/04/11 11:06:44;;;;;;;10.73;2.20;;;15.70;99.90;;;;;;4849061;29;20224;-59
2023/04/11 11:09:22;;;;;;;8.53;1.90;;;17.10;99.90;;;;;;4847726;29;20280;-60
2023/04/11 11:12:07;;;;;;;5.80;2.10;;;18.20;99.90;;;;;;4856582;29;20223;-60
2023/04/11 11:14:37;;;;;;;8.93;2.20;;;18.10;99.90;;;;;;4858824;29;20223;-60
2023/04/11 11:17:06;;;;;;;4.80;2.00;;;17.30;99.90;;;;;;4853380;29;20700;-59
2023/04/11 11:19:35;;;;;;;5.80;2.03;;;16.80;99.90;;;;;;4857970;29;20219;-60
2023/04/11 11:22:05;;;;;;;6.40;2.17;;;16.50;99.90;;;;;;4857610;29;20235;-60
2023/04/11 11:24:33;;;;;;;7.30;2.10;;;16.30;99.90;;;;;;4852896;29;20267;-59
2023/04/11 11:27:02;;;;;;;5.40;2.03;;;16.10;99.90;;;;;;4852517;29;20278;-59
2023/04/11 11:29:32;;;;;;;6.30;2.43;;;16.10;99.90;;;;;;4857495;29;20319;-60
2023/04/11 11:32:03;;;;;;;8.10;2.30;;;16.00;99.90;;;;;;4857062;29;20231;-60
2023/04/11 11:34:32;;;;;;;9.20;2.43;;;16.30;99.90;;;;;;4843553;29;20195;-60
2023/04/11 11:37:04;;;;;;;8.30;2.40;;;16.30;99.90;;;;;;4859511;29;20236;-60
2023/04/11 11:39:34;;;;;;;5.80;2.20;;;16.20;99.90;;;;;;4860044;29;20272;-60
2023/04/11 11:42:02;;;;;;;7.77;2.43;;;15.70;99.90;;;;;;4852131;29;20242;-59
2023/04/11 11:44:31;;;;;;;7.33;2.30;;;15.30;99.90;;;;;;4850170;29;20253;-59
2023/04/11 11:47:05;;;;;;;7.37;1.97;;;15.80;99.90;;;;;;4858440;29;20221;-60
2023/04/11 11:49:54;;;;;;;3.70;1.93;;;16.00;99.90;;;;;;4850669;29;20197;-59
2023/04/11 11:52:33;;;;;;;7.30;2.03;;;16.80;99.90;;;;;;4851340;29;20231;-60
2023/04/11 11:55:02;;;;;;;10.00;2.67;;;17.70;99.90;;;;;;4854202;29;20230;-60
2023/04/11 11:57:30;;;;;;;4.57;1.80;;;17.70;99.90;;;;;;4859025;29;20294;-59
2023/04/11 12:00:02;;;;;;;8.90;2.53;;;17.10;99.90;;;;;;4853241;29;20269;-60
2023/04/11 12:02:34;;;;;;;5.67;2.47;;;17.30;99.90;;;;;;4849264;29;20636;-60
2023/04/11 12:05:06;;;;;;;7.20;2.03;;;17.40;99.90;;;;;;4839059;29;20699;-59
2023/04/11 12:07:37;;;;;;;6.47;1.80;;;16.90;99.90;;;;;;4851612;29;20219;-59
2023/04/11 12:10:07;;;;;;;4.63;2.13;;;16.40;99.90;;;;;;4853274;29;24112;-59
2023/04/11 12:12:37;;;;;;;7.73;2.40;;;16.50;99.90;;;;;;4855078;29;20295;-59
2023/04/11 12:15:11;;;;;;;5.33;2.00;;;16.80;99.90;;;;;;4838800;29;20228;-60
2023/04/11 12:17:47;;;;;;;9.00;2.10;;;16.60;99.90;;;;;;4851516;29;22364;-59
2023/04/11 12:20:16;;;;;;;6.73;2.03;;;16.40;99.90;;;;;;4857498;29;20822;-60
2023/04/11 12:22:45;;;;;;;4.63;1.90;;;16.20;99.90;;;;;;4858520;29;20313;-59
2023/04/11 12:25:14;;;;;;;6.83;1.80;;;15.90;99.90;;;;;;4856950;29;20801;-59
2023/04/11 12:27:44;;;;;;;10.77;2.50;;;15.70;99.90;;;;;;4853985;29;20696;-60
2023/04/11 12:30:14;;;;;;;7.00;1.83;;;15.50;99.90;;;;;;4857427;29;20231;-60
2023/04/11 12:32:45;;;;;;;8.07;2.33;;;15.40;99.90;;;;;;4849796;29;20783;-59
2023/04/11 12:35:13;;;;;;;6.77;1.70;;;15.10;99.90;;;;;;4859010;29;20235;-59
2023/04/11 12:37:41;;;;;;;8.13;2.47;;;14.90;99.90;;;;;;4858182;29;20719;-60
2023/04/11 12:40:11;;;;;;;5.10;2.07;;;15.30;99.90;;;;;;4851326;29;20196;-59
2023/04/11 12:42:40;;;;;;;6.93;2.33;;;15.30;99.90;;;;;;4857625;29;20731;-59
2023/04/11 12:45:23;;;;;;;9.70;2.00;;;15.30;99.90;;;;;;4854973;29;20244;-59
2023/04/11 12:47:53;;;;;;;6.83;2.23;;;15.00;99.90;;;;;;4858241;29;20717;-59
2023/04/11 12:50:22;;;;;;;6.20;1.80;;;15.10;99.90;;;;;;4855744;29;20247;-59
2023/04/11 12:52:51;;;;;;;6.80;2.10;;;15.10;99.90;;;;;;4848868;29;20200;-59
2023/04/11 12:55:20;;;;;;;5.50;1.80;;;15.20;99.90;;;;;;4854683;29;20236;-59
2023/04/11 12:57:48;;;;;;;4.13;1.87;;;15.60;99.90;;;;;;4858971;29;20275;-59
2023/04/11 13:00:17;;;;;;;2.87;1.53;;;15.50;99.90;;;;;;4857217;29;20247;-60